Time;durP1;ratioP1;P1;durP2;ratioP2;P2;SDS_P1;SDS_P2;PMS_P1;PMS_P2;Temp;Humidity;BMP_temperature;BMP_pressure;BME280_temperature;BME280_humidity;BME280_pressure;Samples;Min_cycle;Max_cycle;Signal;HPM_P1;HPM_P2
2022/06/16 00:01:02;;;;;;;7.70;3.03;;;21.80;92.60;;;;;;5060158;28;20045;-79
2022/06/16 00:03:28;;;;;;;4.55;2.95;;;21.70;92.60;;;;;;5063509;28;20041;-78
2022/06/16 00:05:54;;;;;;;8.55;3.63;;;21.70;92.70;;;;;;5061363;28;20095;-79
2022/06/16 00:08:20;;;;;;;5.43;2.95;;;21.60;92.70;;;;;;5061184;28;20044;-79
2022/06/16 00:13:41;;;;;;;4.30;2.70;;;21.60;92.80;;;;;;5063073;28;20049;-79
2022/06/16 00:16:07;;;;;;;7.10;3.28;;;21.60;92.80;;;;;;5058200;28;20509;-79
2022/06/16 00:18:33;;;;;;;5.32;2.78;;;21.60;92.80;;;;;;5061257;28;20044;-79
2022/06/16 00:20:59;;;;;;;5.45;3.58;;;21.60;92.80;;;;;;5060935;28;20044;-79
2022/06/16 00:23:25;;;;;;;5.90;3.85;;;21.60;92.80;;;;;;5061147;28;20044;-79
2022/06/16 00:25:51;;;;;;;5.45;2.75;;;21.60;92.80;;;;;;5060430;28;20046;-79
2022/06/16 00:28:16;;;;;;;4.57;2.97;;;21.50;92.90;;;;;;5061292;28;20656;-79
2022/06/16 00:30:43;;;;;;;6.43;3.00;;;21.50;92.90;;;;;;5043420;28;20067;-79
2022/06/16 00:33:09;;;;;;;6.72;3.35;;;21.50;92.90;;;;;;5060304;28;20510;-79
2022/06/16 00:35:35;;;;;;;6.03;3.10;;;21.50;92.90;;;;;;5060146;28;20224;-79
2022/06/16 00:38:06;;;;;;;5.30;3.00;;;21.50;92.90;;;;;;5060509;28;20138;-78
2022/06/16 00:40:32;;;;;;;;;;;21.50;93.00;;;;;;5060941;28;22174;-79
2022/06/16 00:42:58;;;;;;;5.60;2.83;;;21.50;92.90;;;;;;5061357;28;19924;-79
2022/06/16 00:45:44;;;;;;;8.43;3.50;;;21.40;92.90;;;;;;5062466;28;20044;-79
2022/06/16 00:48:15;;;;;;;6.65;3.05;;;21.40;92.90;;;;;;5045749;28;20048;-79
2022/06/16 00:50:44;;;;;;;4.18;2.40;;;21.40;92.90;;;;;;5065877;28;20098;-79
2022/06/16 00:53:10;;;;;;;3.92;2.50;;;21.30;92.90;;;;;;5067190;28;20147;-79
2022/06/16 00:55:36;;;;;;;6.68;3.47;;;21.30;92.90;;;;;;5069347;28;20049;-79
2022/06/16 00:58:02;;;;;;;5.22;3.78;;;21.20;92.90;;;;;;5068090;28;20032;-79
2022/06/16 01:03:10;;;;;;;7.13;3.03;;;21.20;93.00;;;;;;5070282;28;20051;-79
2022/06/16 01:05:36;;;;;;;6.15;3.08;;;21.10;93.00;;;;;;5069836;28;20049;-79
2022/06/16 01:08:04;;;;;;;4.82;3.35;;;21.10;93.00;;;;;;5064696;28;20044;-79
2022/06/16 01:10:44;;;;;;;4.80;3.13;;;21.00;93.00;;;;;;5068310;28;20041;-79
2022/06/16 01:13:43;;;;;;;5.22;3.00;;;21.00;93.10;;;;;;5067416;28;20044;-79
2022/06/16 01:16:42;;;;;;;4.00;3.13;;;21.00;93.10;;;;;;5066538;28;20037;-79
2022/06/16 01:19:39;;;;;;;5.20;3.15;;;21.00;93.10;;;;;;5065917;28;20106;-79
2022/06/16 01:22:13;;;;;;;4.93;2.90;;;20.90;93.20;;;;;;5068349;28;21156;-79
2022/06/16 01:25:07;;;;;;;6.15;3.03;;;20.90;93.20;;;;;;5067740;28;20041;-79
2022/06/16 01:28:10;;;;;;;7.70;2.97;;;20.90;93.20;;;;;;5067898;28;20084;-81
2022/06/16 01:31:02;;;;;;;7.03;3.47;;;20.80;93.20;;;;;;5053706;28;20497;-79
2022/06/16 01:33:47;;;;;;;5.83;2.53;;;20.70;93.30;;;;;;5067582;28;20126;-79
2022/06/16 01:36:40;;;;;;;4.57;2.70;;;20.70;93.30;;;;;;5069537;28;20519;-79
2022/06/16 01:39:35;;;;;;;4.68;2.97;;;20.60;93.30;;;;;;5065972;28;21254;-79
2022/06/16 01:42:17;;;;;;;7.53;3.97;;;20.60;93.40;;;;;;5064740;28;20147;-79
2022/06/16 01:45:01;;;;;;;4.93;3.13;;;20.60;93.40;;;;;;5067056;28;20115;-79
2022/06/16 01:47:29;;;;;;;4.53;3.15;;;20.60;93.50;;;;;;5065841;28;20045;-79
2022/06/16 01:50:06;;;;;;;4.28;2.88;;;20.50;93.50;;;;;;5062947;28;20041;-79
2022/06/16 01:52:37;;;;;;;5.28;2.83;;;20.40;93.50;;;;;;5067973;28;20032;-79
2022/06/16 01:55:17;;;;;;;6.68;3.22;;;20.40;93.60;;;;;;5067339;28;20049;-79
2022/06/16 01:58:09;;;;;;;5.72;3.10;;;20.50;93.60;;;;;;5066815;28;20056;-79
2022/06/16 02:00:35;;;;;;;5.17;3.63;;;20.50;93.60;;;;;;5080820;28;20526;-79
2022/06/16 02:03:03;;;;;;;6.47;3.10;;;20.50;93.60;;;;;;5062766;28;20068;-79
2022/06/16 02:05:36;;;;;;;4.65;3.35;;;20.50;93.80;;;;;;5075506;27;20069;-79
2022/06/16 02:08:12;;;;;;;4.65;2.92;;;20.40;93.60;;;;;;5077265;28;20591;-79
2022/06/16 02:10:43;;;;;;;5.18;3.55;;;20.40;93.60;;;;;;5080494;28;20522;-79
2022/06/16 02:13:12;;;;;;;4.60;3.03;;;20.30;93.60;;;;;;5065293;28;20049;-79
2022/06/16 02:16:02;;;;;;;6.85;2.90;;;20.30;93.70;;;;;;5064650;28;20617;-79
2022/06/16 02:18:31;;;;;;;5.97;3.85;;;20.20;93.60;;;;;;5061787;28;20125;-79
2022/06/16 02:21:27;;;;;;;5.82;3.28;;;20.20;93.60;;;;;;5063647;28;20445;-79
2022/06/16 02:23:54;;;;;;;7.75;3.75;;;20.20;93.60;;;;;;5062148;28;20119;-79
2022/06/16 02:26:19;;;;;;;5.32;3.13;;;20.20;93.60;;;;;;5046384;28;20834;-79
2022/06/16 02:28:48;;;;;;;6.25;3.40;;;20.20;93.60;;;;;;5059677;28;20201;-79
2022/06/16 02:31:32;;;;;;;6.45;2.67;;;20.10;93.50;;;;;;5045948;28;20137;-79
2022/06/16 02:34:11;;;;;;;4.55;3.35;;;20.10;93.60;;;;;;5076697;27;20737;-79
2022/06/16 02:36:57;;;;;;;11.20;4.15;;;20.10;93.60;;;;;;5065584;28;20037;-79
2022/06/16 02:39:46;;;;;;;6.25;2.95;;;20.20;93.50;;;;;;5078160;28;20535;-79
2022/06/16 02:42:30;;;;;;;6.85;2.72;;;20.10;93.50;;;;;;5063734;28;20568;-79
2022/06/16 02:45:34;;;;;;;5.93;4.03;;;20.00;93.50;;;;;;5059652;28;20041;-80
2022/06/16 02:48:11;;;;;;;4.13;2.60;;;20.00;93.50;;;;;;5053551;28;20800;-79
2022/06/16 02:50:46;;;;;;;4.15;3.30;;;20.00;93.40;;;;;;5060525;28;20522;-79
2022/06/16 02:53:19;;;;;;;4.18;2.40;;;19.90;93.40;;;;;;5064663;28;20040;-79
2022/06/16 02:55:50;;;;;;;5.65;3.90;;;19.80;93.60;;;;;;5078012;28;20039;-79
2022/06/16 02:58:19;;;;;;;11.10;3.70;;;19.80;93.40;;;;;;5063794;28;20052;-79
2022/06/16 03:00:49;;;;;;;5.45;2.97;;;19.80;93.40;;;;;;5064593;28;20036;-79
2022/06/16 03:03:33;;;;;;;4.97;2.45;;;19.80;93.40;;;;;;5062888;28;20124;-79
2022/06/16 03:06:00;;;;;;;4.50;3.55;;;19.80;93.40;;;;;;5062268;28;20052;-79
2022/06/16 03:08:27;;;;;;;5.28;2.85;;;19.70;93.30;;;;;;5064343;28;20091;-79
2022/06/16 03:10:54;;;;;;;4.75;2.90;;;19.70;93.30;;;;;;5063927;28;20045;-79
2022/06/16 03:13:26;;;;;;;6.80;2.83;;;19.60;93.30;;;;;;5061794;28;20036;-79
2022/06/16 03:15:54;;;;;;;5.47;2.75;;;19.50;93.10;;;;;;5064825;28;20049;-79
2022/06/16 03:18:21;;;;;;;4.20;2.80;;;19.50;93.10;;;;;;5062611;28;20135;-79
2022/06/16 03:20:48;;;;;;;3.65;2.40;;;19.40;93.10;;;;;;5061701;28;20088;-79
2022/06/16 03:23:14;;;;;;;5.93;3.28;;;19.40;93.10;;;;;;5048255;28;20040;-79
2022/06/16 03:25:41;;;;;;;5.20;2.70;;;19.40;93.10;;;;;;5064446;28;20098;-79
2022/06/16 03:28:08;;;;;;;5.22;2.95;;;19.50;93.10;;;;;;5060674;28;20048;-80
2022/06/16 03:30:35;;;;;;;3.97;2.50;;;19.40;93.00;;;;;;5059030;28;20135;-79
2022/06/16 03:33:02;;;;;;;4.95;2.45;;;19.40;93.00;;;;;;5060428;28;20671;-79
2022/06/16 03:35:29;;;;;;;3.78;2.60;;;19.40;93.00;;;;;;5062827;28;20051;-79
2022/06/16 03:37:55;;;;;;;4.57;2.67;;;19.40;92.90;;;;;;5061013;28;20041;-79
2022/06/16 03:40:22;;;;;;;5.40;3.03;;;19.30;92.90;;;;;;5061528;28;20045;-79
2022/06/16 03:42:49;;;;;;;5.45;3.05;;;19.30;92.90;;;;;;5061778;28;20052;-79
2022/06/16 03:45:15;;;;;;;5.30;2.55;;;19.30;92.90;;;;;;5056536;28;20443;-79
2022/06/16 03:47:41;;;;;;;5.13;2.72;;;19.20;92.90;;;;;;5062744;28;20048;-79
2022/06/16 03:50:11;;;;;;;7.10;2.72;;;19.20;92.80;;;;;;5059772;28;20118;-79
2022/06/16 03:52:37;;;;;;;5.63;3.05;;;19.20;92.80;;;;;;5064468;28;20040;-79
2022/06/16 03:55:03;;;;;;;5.32;2.95;;;19.10;92.80;;;;;;5062413;28;20076;-79
2022/06/16 03:57:29;;;;;;;6.20;2.53;;;19.20;92.80;;;;;;5063598;28;20191;-79
2022/06/16 03:59:54;;;;;;;4.43;3.13;;;19.20;92.80;;;;;;5075678;28;20517;-79
2022/06/16 04:02:20;;;;;;;5.57;2.70;;;19.20;92.70;;;;;;5059025;28;20174;-79
2022/06/16 04:04:46;;;;;;;6.32;3.13;;;19.10;92.70;;;;;;5074737;28;20599;-79
2022/06/16 04:07:11;;;;;;;6.28;3.10;;;19.20;92.70;;;;;;5077078;28;20776;-78
2022/06/16 04:09:37;;;;;;;4.63;2.28;;;19.20;92.70;;;;;;5062446;28;20824;-79
2022/06/16 04:12:04;;;;;;;4.47;2.67;;;19.10;92.60;;;;;;5063764;28;20049;-79
2022/06/16 04:14:30;;;;;;;5.15;3.33;;;19.10;92.60;;;;;;5044410;28;20086;-79
2022/06/16 04:16:58;;;;;;;5.45;3.05;;;19.00;92.50;;;;;;5062313;28;20148;-79
2022/06/16 04:19:24;;;;;;;4.93;2.42;;;18.90;92.50;;;;;;5061215;28;20036;-79
2022/06/16 04:21:52;;;;;;;5.32;3.65;;;18.90;92.50;;;;;;5062521;28;20051;-78
2022/06/16 04:24:18;;;;;;;5.15;2.92;;;18.80;92.50;;;;;;5053799;28;20029;-80
2022/06/16 04:26:45;;;;;;;6.30;2.83;;;18.90;92.60;;;;;;5058566;28;20041;-79
2022/06/16 04:29:11;;;;;;;5.20;3.60;;;18.90;92.60;;;;;;5077082;28;20080;-79
2022/06/16 04:31:38;;;;;;;4.25;2.80;;;18.90;92.60;;;;;;5076769;28;20037;-78
2022/06/16 04:34:05;;;;;;;4.80;3.15;;;18.90;92.50;;;;;;5063933;28;20809;-79
2022/06/16 04:36:32;;;;;;;4.53;2.70;;;;;;;;;;5059685;28;20049;-79
2022/06/16 04:38:58;;;;;;;6.03;3.00;;;18.90;92.30;;;;;;5062964;28;20052;-79
2022/06/16 04:41:24;;;;;;;5.28;2.83;;;18.80;92.40;;;;;;5059247;28;20084;-79
2022/06/16 04:43:50;;;;;;;3.83;2.35;;;18.90;92.50;;;;;;5064500;28;20190;-79
2022/06/16 04:46:18;;;;;;;6.53;3.05;;;18.90;92.70;;;;;;5058391;28;20589;-79
2022/06/16 04:48:44;;;;;;;5.40;3.47;;;18.90;92.50;;;;;;5061214;28;20072;-79
2022/06/16 04:51:11;;;;;;;3.90;2.38;;;18.80;92.50;;;;;;5061468;28;20051;-80
2022/06/16 04:53:38;;;;;;;5.57;3.03;;;18.80;92.50;;;;;;5058757;28;20044;-79
2022/06/16 04:56:05;;;;;;;4.80;2.40;;;18.80;92.50;;;;;;5061645;28;20040;-80
2022/06/16 04:58:31;;;;;;;4.45;2.80;;;18.80;92.40;;;;;;5056472;28;20053;-79
2022/06/16 05:00:57;;;;;;;6.78;3.10;;;18.80;92.40;;;;;;5061163;28;20064;-79
2022/06/16 05:03:25;;;;;;;5.38;2.63;;;18.90;92.40;;;;;;5060745;28;20546;-79
2022/06/16 05:05:52;;;;;;;5.70;3.45;;;18.90;92.40;;;;;;5063652;28;20056;-79
2022/06/16 05:08:19;;;;;;;4.18;2.63;;;18.80;92.40;;;;;;5063246;28;20037;-79
2022/06/16 05:10:49;;;;;;;5.60;3.00;;;18.80;92.40;;;;;;5061927;28;20032;-79
2022/06/16 05:13:16;;;;;;;4.93;3.50;;;18.70;92.40;;;;;;5063589;28;20071;-79
2022/06/16 05:15:42;;;;;;;5.28;2.90;;;18.80;92.50;;;;;;5063808;28;20842;-79
2022/06/16 05:18:08;;;;;;;6.10;3.50;;;18.80;92.50;;;;;;5060761;28;20036;-80
2022/06/16 05:20:35;;;;;;;7.50;3.08;;;18.80;92.50;;;;;;5062049;28;20041;-80
2022/06/16 05:23:01;;;;;;;9.57;3.28;;;18.80;92.60;;;;;;5043662;28;20041;-83
2022/06/16 05:25:27;;;;;;;7.45;3.45;;;18.80;92.60;;;;;;5059076;28;20103;-82
2022/06/16 05:27:53;;;;;;;5.55;2.83;;;18.80;92.60;;;;;;5060763;28;20123;-83
2022/06/16 05:30:19;;;;;;;4.95;3.08;;;18.80;92.60;;;;;;5061129;28;20594;-83
2022/06/16 05:32:45;;;;;;;6.40;3.47;;;18.80;92.70;;;;;;5062837;28;20041;-83
2022/06/16 05:35:11;;;;;;;6.07;3.38;;;18.80;92.80;;;;;;5061135;28;20084;-82
2022/06/16 05:37:38;;;;;;;6.55;3.22;;;18.80;92.80;;;;;;5064686;28;20044;-82
2022/06/16 05:40:05;;;;;;;6.47;3.17;;;18.80;92.80;;;;;;5066310;28;20044;-82
2022/06/16 05:42:31;;;;;;;7.15;3.55;;;18.90;92.90;;;;;;5065312;28;20532;-82
2022/06/16 05:44:57;;;;;;;6.10;2.60;;;18.90;92.90;;;;;;5067801;28;20071;-83
2022/06/16 05:47:23;;;;;;;4.95;2.80;;;18.90;92.90;;;;;;5067824;28;20044;-82
2022/06/16 05:49:49;;;;;;;5.55;2.90;;;18.80;93.00;;;;;;5061609;28;20049;-82
2022/06/16 05:52:20;;;;;;;7.93;3.03;;;18.80;93.10;;;;;;5067654;28;20048;-82
2022/06/16 05:54:47;;;;;;;6.78;3.47;;;18.90;93.20;;;;;;5065420;28;20139;-82
2022/06/16 05:57:13;;;;;;;6.40;3.08;;;18.90;93.20;;;;;;5067269;28;20402;-83
2022/06/16 05:59:40;;;;;;;3.75;2.97;;;18.90;93.30;;;;;;5067229;28;20624;-83
2022/06/16 06:02:12;;;;;;;6.22;3.13;;;18.90;93.40;;;;;;5065839;28;20039;-82
2022/06/16 06:04:37;;;;;;;4.85;3.28;;;19.00;93.50;;;;;;5065546;28;20581;-83
2022/06/16 06:07:04;;;;;;;9.13;3.15;;;19.00;93.50;;;;;;5064265;28;20052;-82
2022/06/16 06:18:18;;;;;;;8.40;3.00;;;19.00;93.70;;;;;;5049615;28;20198;-82
2022/06/16 06:20:44;;;;;;;9.07;2.80;;;19.00;93.80;;;;;;5066287;28;20565;-82
2022/06/16 06:23:10;;;;;;;6.57;3.60;;;19.10;93.90;;;;;;5064150;28;20072;-82
2022/06/16 06:25:36;;;;;;;5.28;3.20;;;19.10;93.90;;;;;;5064399;28;20419;-82
2022/06/16 06:28:02;;;;;;;5.43;3.22;;;19.10;94.00;;;;;;5058506;28;20530;-82
2022/06/16 06:30:30;;;;;;;9.27;3.58;;;19.10;94.00;;;;;;5063981;28;20036;-82
2022/06/16 06:32:57;;;;;;;7.78;4.50;;;19.20;94.10;;;;;;5061492;28;20037;-83
2022/06/16 06:35:23;;;;;;;5.53;3.20;;;19.20;94.10;;;;;;5065197;28;20042;-82
2022/06/16 06:37:51;;;;;;;6.35;3.75;;;19.20;94.20;;;;;;5081947;28;20047;-83
2022/06/16 06:40:30;;;;;;;6.47;3.75;;;19.30;94.30;;;;;;5060130;28;20033;-83
2022/06/16 06:42:56;;;;;;;7.05;3.28;;;19.30;94.30;;;;;;5064068;28;20049;-83
2022/06/16 06:45:23;;;;;;;8.02;3.50;;;19.30;94.40;;;;;;5062747;28;20044;-82
2022/06/16 06:47:49;;;;;;;4.78;3.40;;;19.30;94.40;;;;;;5063896;28;20043;-82
2022/06/16 06:50:25;;;;;;;12.18;4.07;;;19.30;94.50;;;;;;5063404;28;20101;-82
2022/06/16 06:52:52;;;;;;;7.93;3.45;;;19.40;94.50;;;;;;5080149;28;20037;-83
2022/06/16 06:55:18;;;;;;;9.43;3.22;;;19.40;94.50;;;;;;5077793;28;21574;-82
2022/06/16 06:57:45;;;;;;;3.25;2.65;;;19.50;94.60;;;;;;5080707;28;20041;-83
2022/06/16 07:00:14;;;;;;;9.60;4.28;;;19.50;94.70;;;;;;5065464;28;20033;-83
2022/06/16 07:02:40;;;;;;;6.25;3.90;;;19.50;94.70;;;;;;5067773;28;20041;-82
2022/06/16 07:05:06;;;;;;;7.93;4.50;;;19.60;94.80;;;;;;5082043;28;20041;-82
2022/06/16 07:07:34;;;;;;;10.13;4.13;;;19.60;94.80;;;;;;5067343;28;20573;-82
2022/06/16 07:10:00;;;;;;;7.70;3.45;;;19.60;94.80;;;;;;5065769;28;20122;-82
2022/06/16 07:12:26;;;;;;;7.80;3.63;;;19.60;94.90;;;;;;5067002;28;20037;-82
2022/06/16 07:14:52;;;;;;;8.23;4.07;;;19.70;95.00;;;;;;5066436;28;20538;-82
2022/06/16 07:17:21;;;;;;;6.78;3.47;;;19.70;95.30;;;;;;5067780;28;20585;-81
2022/06/16 07:19:48;;;;;;;7.63;4.15;;;19.70;95.10;;;;;;5082671;28;20955;-82
2022/06/16 07:22:13;;;;;;;8.15;3.55;;;19.70;95.10;;;;;;5066407;28;20045;-82
2022/06/16 07:24:39;;;;;;;5.55;4.13;;;19.70;95.10;;;;;;5064859;28;20049;-82
2022/06/16 07:27:06;;;;;;;7.63;3.25;;;19.80;95.20;;;;;;5067565;28;20048;-82
2022/06/16 07:29:32;;;;;;;10.25;4.03;;;19.90;95.30;;;;;;5069126;28;20036;-82
2022/06/16 07:31:58;;;;;;;10.75;4.70;;;19.90;95.40;;;;;;5070863;28;20596;-82
2022/06/16 07:34:25;;;;;;;11.20;4.65;;;19.90;95.40;;;;;;5070975;28;20052;-82
2022/06/16 07:36:51;;;;;;;6.50;4.13;;;20.00;95.50;;;;;;5067831;28;20497;-82
2022/06/16 07:39:17;;;;;;;8.18;5.53;;;20.00;95.50;;;;;;5068861;28;20099;-82
2022/06/16 07:41:43;;;;;;;13.48;4.97;;;20.10;95.50;;;;;;5067364;28;20053;-82
2022/06/16 07:44:11;;;;;;;6.55;3.58;;;20.10;95.50;;;;;;5069272;28;20626;-82
2022/06/16 07:46:39;;;;;;;9.80;4.63;;;20.10;95.50;;;;;;5065030;28;20052;-82
2022/06/16 07:49:06;;;;;;;6.13;3.45;;;20.10;95.60;;;;;;5066428;28;20041;-82
2022/06/16 07:51:31;;;;;;;8.70;4.40;;;20.10;95.60;;;;;;5065670;28;20045;-82
2022/06/16 07:53:57;;;;;;;14.15;4.13;;;20.20;95.60;;;;;;5068759;28;20127;-82
2022/06/16 07:56:23;;;;;;;6.90;3.90;;;20.20;95.60;;;;;;5082272;28;20056;-82
2022/06/16 07:58:49;;;;;;;7.40;3.08;;;20.20;95.70;;;;;;5064525;28;20079;-82
2022/06/16 08:01:15;;;;;;;7.70;3.65;;;20.20;95.70;;;;;;5065117;28;20081;-82
2022/06/16 08:03:41;;;;;;;8.60;3.97;;;20.30;95.70;;;;;;5065861;28;20060;-82
2022/06/16 08:06:10;;;;;;;7.22;4.40;;;20.30;95.70;;;;;;5066946;28;20040;-82
2022/06/16 08:08:37;;;;;;;8.18;3.53;;;20.40;95.80;;;;;;5065970;28;20048;-82
2022/06/16 08:11:05;;;;;;;7.40;4.00;;;20.40;95.80;;;;;;5065713;28;20048;-82
2022/06/16 08:13:31;;;;;;;8.88;3.83;;;20.50;95.80;;;;;;5065386;28;20048;-82
2022/06/16 08:15:58;;;;;;;5.68;4.57;;;20.50;95.80;;;;;;5063687;28;20048;-83
2022/06/16 08:18:26;;;;;;;6.75;3.65;;;20.50;95.80;;;;;;5064043;28;20564;-82
2022/06/16 08:20:53;;;;;;;7.47;4.00;;;20.60;96.00;;;;;;5065567;28;20567;-82
2022/06/16 08:23:19;;;;;;;8.60;4.78;;;20.60;95.70;;;;;;5066551;28;20687;-82
2022/06/16 08:25:46;;;;;;;15.40;4.85;;;20.60;95.70;;;;;;5065658;28;20136;-82
2022/06/16 08:28:15;;;;;;;11.93;4.40;;;20.60;95.70;;;;;;5047765;28;20045;-82
2022/06/16 08:30:44;;;;;;;7.10;4.00;;;20.70;95.70;;;;;;5065693;28;20045;-82
2022/06/16 08:33:13;;;;;;;10.15;3.70;;;20.70;95.70;;;;;;5048071;28;20530;-82
2022/06/16 08:35:41;;;;;;;13.15;5.53;;;20.80;95.70;;;;;;5064224;28;20044;-82
2022/06/16 08:38:08;;;;;;;11.73;5.70;;;20.80;95.70;;;;;;5065911;28;20823;-82
2022/06/16 08:40:41;;;;;;;6.05;3.33;;;20.80;95.60;;;;;;5065422;28;20055;-82
2022/06/16 08:43:22;;;;;;;5.85;3.67;;;20.80;95.50;;;;;;5065433;28;20542;-82
2022/06/16 08:45:54;;;;;;;9.57;5.30;;;20.90;95.60;;;;;;5064593;28;20582;-82
2022/06/16 08:48:45;;;;;;;10.65;4.28;;;20.90;95.70;;;;;;5064948;28;20176;-83
2022/06/16 08:51:39;;;;;;;8.90;4.87;;;21.00;95.60;;;;;;5066613;28;20036;-82
2022/06/16 08:54:09;;;;;;;8.38;3.85;;;21.00;95.50;;;;;;5066977;28;20596;-83
2022/06/16 08:56:54;;;;;;;7.35;3.35;;;21.00;95.50;;;;;;5081205;28;20454;-83
2022/06/16 09:00:18;;;;;;;7.63;4.53;;;21.10;95.40;;;;;;5065082;28;20577;-82
2022/06/16 09:03:03;;;;;;;7.20;4.53;;;21.10;95.40;;;;;;5047284;28;20553;-82
2022/06/16 09:05:54;;;;;;;7.93;4.03;;;21.10;95.50;;;;;;5080810;28;20052;-82
2022/06/16 09:08:23;;;;;;;7.20;3.77;;;21.20;95.50;;;;;;5080202;28;20537;-83
2022/06/16 09:10:56;;;;;;;14.95;3.45;;;21.20;95.40;;;;;;5067071;28;20267;-82
2022/06/16 09:15:10;;;;;;;6.57;3.90;;;21.30;95.40;;;;;;5068491;28;20091;-82
2022/06/16 09:17:17;;;;;;;8.85;4.07;;;21.30;95.30;;;;;;5027639;28;20061;-81
2022/06/16 09:20:11;;;;;;;7.47;3.42;;;21.30;95.50;;;;;;5010572;28;20069;-81
2022/06/16 09:23:00;;;;;;;4.95;4.13;;;21.40;95.20;;;;;;5058578;28;20530;-82
2022/06/16 09:25:36;;;;;;;7.68;3.95;;;21.40;95.20;;;;;;5067012;28;20040;-82
2022/06/16 09:28:09;;;;;;;8.25;4.32;;;21.40;95.00;;;;;;5068703;28;20044;-82
2022/06/16 09:30:39;;;;;;;10.00;3.63;;;21.40;94.90;;;;;;5069792;28;20063;-83
2022/06/16 09:33:18;;;;;;;7.47;3.40;;;21.40;94.80;;;;;;5084722;28;20071;-82
2022/06/16 09:35:49;;;;;;;7.90;3.40;;;21.50;94.40;;;;;;5066910;28;20045;-83
2022/06/16 09:38:54;;;;;;;8.27;3.97;;;21.50;94.40;;;;;;5067583;28;20049;-83
2022/06/16 09:44:45;;;;;;;4.65;2.95;;;21.60;93.90;;;;;;5068742;28;20564;-83
2022/06/16 09:47:16;;;;;;;7.00;2.72;;;21.60;93.60;;;;;;5032009;28;20045;-83
2022/06/16 09:49:57;;;;;;;6.03;3.00;;;21.70;93.70;;;;;;5069142;28;20044;-82
2022/06/16 09:52:47;;;;;;;6.00;2.50;;;21.70;93.50;;;;;;5066037;28;20218;-83
2022/06/16 09:55:41;;;;;;;4.57;2.92;;;21.70;93.40;;;;;;5082634;27;20088;-83
2022/06/16 09:58:14;;;;;;;4.93;2.03;;;21.80;93.10;;;;;;5064693;28;20048;-83
2022/06/16 10:00:40;;;;;;;4.82;2.30;;;21.80;93.00;;;;;;5067972;28;20049;-82
2022/06/16 10:03:25;;;;;;;5.78;3.58;;;21.80;92.70;;;;;;5067582;28;20036;-82
2022/06/16 10:06:06;;;;;;;4.60;3.10;;;21.90;92.60;;;;;;5084594;28;20097;-83
2022/06/16 10:08:51;;;;;;;3.63;2.28;;;21.80;92.60;;;;;;5067691;28;20055;-83
2022/06/16 10:11:27;;;;;;;4.55;2.83;;;21.80;92.60;;;;;;5067286;28;20041;-82
2022/06/16 10:14:22;;;;;;;4.30;2.40;;;21.90;92.50;;;;;;5069619;28;20091;-82
2022/06/16 10:17:01;;;;;;;5.03;3.33;;;22.00;92.10;;;;;;5057411;28;20079;-82
2022/06/16 10:19:31;;;;;;;6.00;2.30;;;22.10;92.10;;;;;;5065632;28;20041;-82
2022/06/16 10:21:59;;;;;;;3.05;2.28;;;22.10;92.00;;;;;;5066479;28;20083;-82
2022/06/16 10:24:32;;;;;;;5.75;2.22;;;22.10;92.00;;;;;;5067732;28;20046;-83
2022/06/16 10:26:59;;;;;;;5.07;2.72;;;22.10;91.70;;;;;;5067103;28;20041;-82
2022/06/16 10:29:31;;;;;;;3.45;2.35;;;22.20;91.30;;;;;;5067504;28;20040;-82
2022/06/16 10:31:59;;;;;;;4.70;2.28;;;22.20;91.10;;;;;;5084502;28;20099;-82
2022/06/16 10:34:40;;;;;;;4.78;2.15;;;22.20;91.10;;;;;;5067815;28;20037;-82
2022/06/16 10:37:20;;;;;;;9.40;2.30;;;22.20;91.10;;;;;;5068570;28;20249;-82
2022/06/16 10:40:05;;;;;;;6.22;2.45;;;22.30;91.00;;;;;;5066521;28;20496;-82
2022/06/16 10:42:39;;;;;;;3.67;2.45;;;22.40;90.80;;;;;;5064893;28;20064;-82
2022/06/16 10:45:05;;;;;;;5.40;2.30;;;22.40;90.70;;;;;;5065641;28;20044;-82
2022/06/16 10:47:33;;;;;;;8.32;2.72;;;22.50;90.70;;;;;;5083039;28;20048;-82
2022/06/16 10:50:01;;;;;;;5.18;2.25;;;22.50;90.60;;;;;;5066183;28;20043;-83
2022/06/16 10:52:38;;;;;;;4.53;2.13;;;22.50;90.20;;;;;;5064164;28;20550;-82
2022/06/16 10:55:09;;;;;;;3.45;2.33;;;22.50;90.10;;;;;;5064347;28;20049;-82
2022/06/16 10:57:43;;;;;;;6.57;2.20;;;22.50;90.10;;;;;;5066735;28;20047;-83
2022/06/16 11:00:21;;;;;;;3.58;2.25;;;22.60;89.40;;;;;;5068068;28;20643;-83
2022/06/16 11:03:04;;;;;;;2.95;1.52;;;22.60;88.60;;;;;;5067684;28;20033;-83
2022/06/16 11:05:34;;;;;;;4.53;2.10;;;22.60;87.70;;;;;;5067236;28;20568;-83
2022/06/16 11:08:12;;;;;;;3.58;2.53;;;22.60;87.10;;;;;;5067527;28;20399;-82
2022/06/16 11:10:41;;;;;;;5.55;2.30;;;22.70;87.00;;;;;;5082872;28;20931;-83
2022/06/16 11:13:14;;;;;;;3.13;1.80;;;22.70;86.80;;;;;;5068240;28;20147;-83
2022/06/16 11:15:42;;;;;;;4.90;2.20;;;22.70;86.50;;;;;;5065582;28;20040;-82
2022/06/16 11:18:12;;;;;;;6.93;2.28;;;22.80;85.80;;;;;;5066285;28;20044;-82
2022/06/16 11:20:48;;;;;;;10.07;2.90;;;22.80;85.60;;;;;;5067437;28;20044;-83
2022/06/16 11:23:19;;;;;;;8.60;2.63;;;22.80;85.60;;;;;;5067378;28;20071;-82
2022/06/16 11:25:46;;;;;;;5.00;2.30;;;22.80;85.80;;;;;;5066799;28;20045;-82
2022/06/16 11:28:15;;;;;;;5.75;2.53;;;22.90;85.80;;;;;;5066541;28;20098;-83
2022/06/16 11:30:47;;;;;;;7.95;3.45;;;23.00;85.30;;;;;;5081721;28;20048;-83
2022/06/16 11:36:20;;;;;;;3.83;1.85;;;23.00;83.50;;;;;;5066688;28;20637;-83
2022/06/16 11:39:02;;;;;;;3.50;2.00;;;23.00;83.50;;;;;;5065389;28;20044;-83
2022/06/16 11:41:30;;;;;;;4.25;1.90;;;23.00;83.50;;;;;;5080744;28;20056;-82
2022/06/16 11:44:11;;;;;;;4.50;2.08;;;23.00;83.80;;;;;;5068065;28;20186;-83
2022/06/16 11:46:58;;;;;;;6.32;2.03;;;23.10;83.60;;;;;;5065133;28;20052;-83
2022/06/16 11:49:36;;;;;;;3.95;2.00;;;23.20;83.10;;;;;;5082736;28;20050;-83
2022/06/16 11:52:36;;;;;;;4.65;2.60;;;23.20;82.90;;;;;;5066335;28;20124;-83
2022/06/16 11:55:14;;;;;;;6.43;1.83;;;23.20;82.60;;;;;;5064979;28;20140;-82
2022/06/16 11:58:15;;;;;;;4.72;1.83;;;23.20;82.30;;;;;;5081189;28;20038;-82
2022/06/16 12:00:48;;;;;;;7.68;2.95;;;23.20;81.90;;;;;;5065945;28;20100;-82
2022/06/16 12:03:27;;;;;;;4.03;1.70;;;23.30;81.60;;;;;;5065405;28;20045;-83
2022/06/16 12:06:19;;;;;;;2.83;1.80;;;23.40;81.50;;;;;;5066548;28;20036;-82
2022/06/16 12:09:00;;;;;;;2.58;1.25;;;23.40;80.30;;;;;;5065678;28;20041;-83
2022/06/16 12:11:34;;;;;;;2.95;1.70;;;23.50;79.30;;;;;;5081367;28;20478;-82
2022/06/16 12:14:11;;;;;;;5.93;1.80;;;23.50;79.40;;;;;;5066046;28;20102;-83
2022/06/16 12:16:57;;;;;;;3.80;1.48;;;23.50;80.20;;;;;;5082614;28;20060;-83
2022/06/16 12:19:43;;;;;;;3.28;1.90;;;23.50;80.00;;;;;;5066760;28;20788;-83
2022/06/16 12:22:22;;;;;;;6.82;2.40;;;23.60;79.20;;;;;;5067440;28;20126;-82
2022/06/16 12:24:53;;;;;;;7.28;3.03;;;23.60;79.50;;;;;;5064835;28;20064;-83
2022/06/16 12:27:43;;;;;;;13.40;2.72;;;23.60;79.90;;;;;;5049514;28;20064;-82
2022/06/16 12:30:34;;;;;;;3.13;2.05;;;23.70;80.10;;;;;;5065707;28;20242;-82
2022/06/16 12:33:06;;;;;;;2.05;1.52;;;23.70;80.40;;;;;;5057138;28;20049;-83
2022/06/16 12:35:36;;;;;;;2.47;1.75;;;23.70;80.50;;;;;;5081480;28;20048;-83
2022/06/16 12:38:11;;;;;;;4.95;1.70;;;23.70;80.50;;;;;;5065597;28;20041;-82
2022/06/16 12:40:48;;;;;;;5.18;2.13;;;23.90;80.30;;;;;;5066755;28;20048;-82
2022/06/16 12:43:34;;;;;;;4.68;2.10;;;23.90;80.10;;;;;;5064420;28;20494;-82
2022/06/16 12:46:09;;;;;;;4.75;1.67;;;23.90;80.10;;;;;;5066427;28;20045;-83
2022/06/16 12:48:48;;;;;;;4.93;1.98;;;23.90;79.80;;;;;;5062546;28;20083;-83
2022/06/16 12:51:19;;;;;;;3.60;1.63;;;24.00;79.70;;;;;;5065846;28;20040;-82
2022/06/16 12:54:06;;;;;;;3.75;1.85;;;24.00;79.40;;;;;;5062632;28;20047;-82
2022/06/16 12:56:41;;;;;;;4.05;2.10;;;24.00;79.30;;;;;;5065090;28;20048;-83
2022/06/16 13:00:05;;;;;;;4.03;1.67;;;24.00;79.40;;;;;;5066915;28;20182;-82
2022/06/16 13:02:36;;;;;;;5.30;2.13;;;24.10;79.50;;;;;;5030709;28;20057;-82
2022/06/16 13:05:09;;;;;;;4.05;1.75;;;24.10;79.30;;;;;;5063769;28;20441;-82
2022/06/16 13:07:37;;;;;;;3.90;1.58;;;24.20;79.30;;;;;;5064226;28;20041;-82
2022/06/16 13:10:08;;;;;;;4.85;1.73;;;24.20;79.10;;;;;;5064652;28;20542;-82
2022/06/16 13:12:43;;;;;;;2.63;1.95;;;24.30;78.90;;;;;;5079828;28;20044;-83
2022/06/16 13:15:22;;;;;;;2.60;1.70;;;24.30;78.70;;;;;;5065997;28;20404;-82
2022/06/16 13:17:58;;;;;;;3.13;1.60;;;24.30;78.50;;;;;;5064555;28;20071;-82
2022/06/16 13:20:26;;;;;;;2.13;1.58;;;24.40;78.00;;;;;;5065086;28;20055;-83
2022/06/16 13:23:11;;;;;;;2.80;1.80;;;24.40;77.40;;;;;;5063567;28;20463;-82
2022/06/16 13:25:53;;;;;;;2.15;1.45;;;24.40;76.70;;;;;;5064308;28;20045;-82
2022/06/16 13:28:29;;;;;;;3.08;1.88;;;24.40;75.90;;;;;;5065337;28;20041;-82
2022/06/16 13:30:58;;;;;;;2.63;1.20;;;24.50;75.50;;;;;;5064391;28;20049;-82
2022/06/16 13:36:50;;;;;;;3.07;1.70;;;24.50;74.80;;;;;;5066269;28;20102;-82
2022/06/16 13:40:01;;;;;;;5.97;2.97;;;24.50;75.20;;;;;;5057156;28;20359;-83
2022/06/16 13:42:52;;;;;;;3.87;1.57;;;24.60;75.40;;;;;;5039108;28;20045;-82